Time;durP1;ratioP1;P1;durP2;ratioP2;P2;SDS_P1;SDS_P2;PMS_P1;PMS_P2;Temp;Humidity;BMP_temperature;BMP_pressure;BME280_temperature;BME280_humidity;BME280_pressure;Samples;Min_cycle;Max_cycle;Signal;HPM_P1;HPM_P2
2021/11/22 00:00:29;;;;;;;5.70;3.05;;;;;;;-145.71;100.00;60690.53;4770250;30;20043;-91
2021/11/22 00:03:54;;;;;;;5.63;3.13;;;;;;;-145.71;100.00;60690.53;4770305;29;20500;-91
2021/11/22 00:07:18;;;;;;;7.15;3.25;;;;;;;-145.71;100.00;60690.53;4769946;30;20027;-91
2021/11/22 00:10:42;;;;;;;6.95;2.97;;;;;;;-145.71;100.00;60690.53;4786279;29;20074;-91
2021/11/22 00:14:06;;;;;;;5.97;2.53;;;;;;;-145.71;100.00;60690.53;4769915;30;20038;-91
2021/11/22 00:17:31;;;;;;;5.38;3.17;;;;;;;-145.71;100.00;60690.53;4786096;30;20119;-91
2021/11/22 00:20:55;;;;;;;8.40;2.92;;;;;;;-145.71;100.00;60690.53;4785860;29;20043;-91
2021/11/22 00:24:19;;;;;;;8.00;3.38;;;;;;;-145.71;100.00;60690.53;4788634;29;20043;-91
2021/11/22 00:27:44;;;;;;;14.23;3.83;;;;;;;-145.71;100.00;60690.53;4785814;30;20035;-91
2021/11/22 00:31:08;;;;;;;6.25;2.83;;;;;;;-145.71;100.00;60690.53;4786034;30;20032;-91
2021/11/22 00:34:41;;;;;;;7.82;3.75;;;;;;;-145.71;100.00;60690.53;4787506;29;20039;-91
2021/11/22 00:38:06;;;;;;;;;;;;;;;-145.71;100.00;60690.53;4770372;30;20039;-91
2021/11/22 00:41:31;;;;;;;6.72;3.42;;;;;;;-145.71;100.00;60690.53;4769695;30;19930;-91
2021/11/22 00:44:56;;;;;;;5.20;3.25;;;;;;;-145.71;100.00;60690.53;4769565;30;20031;-91
2021/11/22 00:48:21;;;;;;;4.97;3.70;;;;;;;-145.71;100.00;60690.53;4769636;30;20043;-92
2021/11/22 00:51:50;;;;;;;5.13;3.47;;;;;;;-145.71;100.00;60690.53;4771123;30;20035;-92
2021/11/22 00:55:14;;;;;;;4.90;2.97;;;;;;;-145.71;100.00;60690.53;4786744;29;20030;-91
2021/11/22 00:58:38;;;;;;;7.53;3.90;;;;;;;-145.71;100.00;60690.53;4769455;30;20035;-91
2021/11/22 01:02:02;;;;;;;7.55;4.30;;;;;;;-145.71;100.00;60690.53;4785737;30;20089;-91
2021/11/22 01:05:26;;;;;;;5.68;3.40;;;;;;;-145.71;100.00;60690.53;4769697;30;20126;-92
2021/11/22 01:08:50;;;;;;;6.22;4.05;;;;;;;-145.71;100.00;60690.53;4769112;29;20436;-91
2021/11/22 01:12:14;;;;;;;7.30;3.47;;;;;;;-145.71;100.00;60690.53;4771336;30;20065;-91
2021/11/22 01:15:39;;;;;;;6.65;3.60;;;;;;;-145.71;100.00;60690.53;4769139;30;20039;-91
2021/11/22 01:19:03;;;;;;;6.65;3.35;;;;;;;-145.71;100.00;60690.53;4769482;29;20040;-92
2021/11/22 01:22:27;;;;;;;5.75;3.20;;;;;;;-145.71;100.00;60690.53;4785718;30;20039;-93
2021/11/22 01:25:52;;;;;;;9.70;3.88;;;;;;;-145.71;100.00;60690.53;4769258;30;20127;-92
2021/11/22 01:29:16;;;;;;;5.70;3.85;;;;;;;-145.71;100.00;60690.53;4768865;30;20039;-92
2021/11/22 01:32:40;;;;;;;7.50;3.72;;;;;;;-145.71;100.00;60690.53;4769402;29;20054;-92
2021/11/22 01:36:05;;;;;;;3.88;3.10;;;;;;;-145.71;100.00;60690.53;4788902;29;20737;-93
2021/11/22 01:39:29;;;;;;;8.60;3.28;;;;;;;-145.71;100.00;60690.53;4773174;30;20039;-92
2021/11/22 01:42:54;;;;;;;5.28;3.30;;;;;;;-145.71;100.00;60690.53;4794005;30;20058;-93
2021/11/22 01:46:21;;;;;;;6.13;3.13;;;;;;;-145.71;100.00;60690.53;4773879;30;20042;-93
2021/11/22 01:49:45;;;;;;;4.50;2.97;;;;;;;-145.71;100.00;60690.53;4772357;30;20031;-92
2021/11/22 01:53:10;;;;;;;6.57;3.30;;;;;;;-145.71;100.00;60690.53;4772492;30;20048;-92
2021/11/22 01:56:34;;;;;;;4.82;2.40;;;;;;;-145.71;100.00;60690.53;4772772;30;20208;-92
2021/11/22 01:59:58;;;;;;;3.53;2.60;;;;;;;-145.71;100.00;60690.53;4772304;30;20124;-92
2021/11/22 02:03:22;;;;;;;5.57;2.80;;;;;;;-145.71;100.00;60690.53;4772482;30;20419;-91
2021/11/22 02:06:49;;;;;;;7.53;2.53;;;;;;;-145.71;100.00;60690.53;4788161;30;20036;-91
2021/11/22 02:10:13;;;;;;;5.03;3.08;;;;;;;-145.71;100.00;60690.53;4771694;30;20059;-91
2021/11/22 02:13:37;;;;;;;5.47;2.58;;;;;;;-145.71;100.00;60690.53;4788360;30;20032;-91
2021/11/22 02:17:01;;;;;;;8.82;2.83;;;;;;;-145.71;100.00;60690.53;4774687;30;20039;-91
2021/11/22 02:20:26;;;;;;;4.03;2.70;;;;;;;-145.71;100.00;60690.53;4771837;30;20043;-91
2021/11/22 02:23:52;;;;;;;9.57;2.60;;;;;;;-145.71;100.00;60690.53;4788333;29;20047;-91
2021/11/22 02:27:16;;;;;;;5.78;2.88;;;;;;;-145.71;100.00;60690.53;4771993;30;20037;-91
2021/11/22 02:30:41;;;;;;;6.28;2.53;;;;;;;-145.71;100.00;60690.53;4787852;29;20412;-91
2021/11/22 02:34:07;;;;;;;6.03;1.98;;;;;;;-145.71;100.00;60690.53;4788094;29;20035;-92
2021/11/22 02:37:31;;;;;;;9.00;2.85;;;;;;;-145.71;100.00;60690.53;4788355;30;20031;-92
2021/11/22 02:40:56;;;;;;;8.15;2.40;;;;;;;-145.71;100.00;60690.53;4771840;30;20039;-91
2021/11/22 02:44:20;;;;;;;5.25;2.80;;;;;;;-145.71;100.00;60690.53;4787249;29;20043;-91
2021/11/22 02:47:45;;;;;;;6.68;3.47;;;;;;;-145.71;100.00;60690.53;4771593;30;20042;-91
2021/11/22 02:51:10;;;;;;;10.05;2.50;;;;;;;-145.71;100.00;60690.53;4787770;30;20066;-91
2021/11/22 02:54:34;;;;;;;7.50;2.80;;;;;;;-145.71;100.00;60690.53;4771463;30;20035;-91
2021/11/22 02:57:58;;;;;;;10.15;3.58;;;;;;;-145.71;100.00;60690.53;4787603;30;20074;-91
2021/11/22 03:01:25;;;;;;;6.28;2.67;;;;;;;-145.71;100.00;60690.53;4770954;30;20038;-91
2021/11/22 03:04:49;;;;;;;6.78;3.40;;;;;;;-145.71;100.00;60690.53;4771014;30;20039;-91
2021/11/22 03:08:13;;;;;;;8.63;3.20;;;;;;;-145.71;100.00;60690.53;4787436;30;20493;-91
2021/11/22 03:11:37;;;;;;;5.18;2.92;;;;;;;-145.71;100.00;60690.53;4786415;30;20046;-91
2021/11/22 03:15:02;;;;;;;9.43;3.00;;;;;;;-145.71;100.00;60690.53;4786315;29;20035;-91
2021/11/22 03:18:27;;;;;;;8.38;3.22;;;;;;;-145.71;100.00;60690.53;4770537;30;20036;-91
2021/11/22 03:21:52;;;;;;;9.18;2.78;;;;;;;-145.71;100.00;60690.53;4770039;30;20220;-91
2021/11/22 03:25:17;;;;;;;9.05;3.83;;;;;;;-145.71;100.00;60690.53;4785895;29;20560;-91
2021/11/22 03:28:41;;;;;;;10.40;3.10;;;;;;;-145.71;100.00;60690.53;4771219;29;20031;-91
2021/11/22 03:32:05;;;;;;;8.60;2.78;;;;;;;-145.71;100.00;60690.53;4786085;30;20035;-92
2021/11/22 03:35:29;;;;;;;4.57;2.60;;;;;;;-145.71;100.00;60690.53;4769770;30;20074;-92
2021/11/22 03:38:53;;;;;;;8.43;3.28;;;;;;;-145.71;100.00;60690.53;4787020;29;20123;-91
2021/11/22 03:42:18;;;;;;;7.03;3.47;;;;;;;-145.71;100.00;60690.53;4786048;30;20039;-92
2021/11/22 03:45:47;;;;;;;6.47;3.30;;;;;;;-145.71;100.00;60690.53;4769776;30;20035;-92
2021/11/22 03:49:11;;;;;;;7.40;3.10;;;;;;;-145.71;100.00;60690.53;4769750;30;20035;-92
2021/11/22 03:52:35;;;;;;;6.30;3.78;;;;;;;-145.71;100.00;60690.53;4769698;30;20031;-92
2021/11/22 03:55:59;;;;;;;6.65;3.42;;;;;;;-145.71;100.00;60690.53;4768963;30;20077;-92
2021/11/22 03:59:23;;;;;;;6.30;3.95;;;;;;;-145.71;100.00;60690.53;4769890;30;20063;-91
2021/11/22 04:02:47;;;;;;;6.72;3.75;;;;;;;-145.71;100.00;60690.53;4769177;30;20561;-91
2021/11/22 04:06:12;;;;;;;6.18;3.80;;;;;;;-145.71;100.00;60690.53;4789307;30;20098;-90
2021/11/22 04:09:36;;;;;;;5.95;3.95;;;;;;;-145.71;100.00;60690.53;4731536;30;1159472;-91
2021/11/22 04:13:00;;;;;;;6.45;3.65;;;;;;;-145.71;100.00;60690.53;4786383;30;20079;-91
2021/11/22 04:16:24;;;;;;;7.88;4.30;;;;;;;-145.71;100.00;60690.53;4786112;30;20035;-91
2021/11/22 04:19:49;;;;;;;6.22;3.45;;;;;;;-145.71;100.00;60690.53;4770211;30;20058;-91
2021/11/22 04:23:13;;;;;;;6.10;3.10;;;;;;;-145.71;100.00;60690.53;4769976;30;20418;-91
2021/11/22 04:26:37;;;;;;;4.72;3.35;;;;;;;-145.71;100.00;60690.53;4769699;30;20070;-91
2021/11/22 04:30:02;;;;;;;6.80;3.40;;;;;;;-145.71;100.00;60690.53;4786024;29;20118;-92
2021/11/22 04:33:26;;;;;;;7.05;3.92;;;;;;;-145.71;100.00;60690.53;4785891;30;20035;-92
2021/11/22 04:36:50;;;;;;;8.60;3.78;;;;;;;-145.71;100.00;60690.53;4772215;30;20031;-92
2021/11/22 04:40:15;;;;;;;8.77;3.45;;;;;;;-145.71;100.00;60690.53;4785992;29;20031;-92
2021/11/22 04:43:39;;;;;;;7.60;2.67;;;;;;;-145.71;100.00;60690.53;4772062;30;20157;-92
2021/11/22 04:47:09;;;;;;;8.75;3.58;;;;;;;-145.71;100.00;60690.53;4785765;30;20035;-91
2021/11/22 04:50:34;;;;;;;8.32;3.67;;;;;;;-145.71;100.00;60690.53;4769742;30;20047;-92
2021/11/22 04:53:58;;;;;;;7.00;3.35;;;;;;;-145.71;100.00;60690.53;4770473;29;20798;-93
2021/11/22 04:57:22;;;;;;;6.18;4.00;;;;;;;-145.71;100.00;60690.53;4770411;30;20042;-92
2021/11/22 05:00:46;;;;;;;7.55;3.45;;;;;;;-145.71;100.00;60690.53;4770066;30;20122;-92
2021/11/22 05:04:10;;;;;;;4.97;3.42;;;;;;;-145.71;100.00;60690.53;4769819;30;20043;-92
2021/11/22 05:07:34;;;;;;;7.72;3.75;;;;;;;-145.71;100.00;60690.53;4775558;29;20085;-92
2021/11/22 05:10:58;;;;;;;5.22;3.50;;;;;;;-145.71;100.00;60690.53;4790111;29;20736;-93
2021/11/22 05:14:24;;;;;;;7.95;3.65;;;;;;;-145.71;100.00;60690.53;4773671;30;20035;-92
2021/11/22 05:17:48;;;;;;;8.73;4.32;;;;;;;-145.71;100.00;60690.53;4790029;30;20023;-92
2021/11/22 05:21:12;;;;;;;6.00;3.65;;;;;;;-145.71;100.00;60690.53;4774094;30;20067;-92
2021/11/22 05:24:36;;;;;;;20.35;4.35;;;;;;;-145.71;100.00;60690.53;4773212;30;20035;-92
2021/11/22 05:28:01;;;;;;;9.40;4.00;;;;;;;-145.71;100.00;60690.53;4773529;30;20031;-92
2021/11/22 05:31:25;;;;;;;5.57;3.80;;;;;;;-145.71;100.00;60690.53;4775658;30;20028;-92
2021/11/22 05:34:50;;;;;;;6.75;3.67;;;;;;;-145.71;100.00;60690.53;4773202;30;20118;-92
2021/11/22 05:38:15;;;;;;;9.00;4.15;;;;;;;-145.71;100.00;60690.53;4773797;30;20035;-92
2021/11/22 05:41:39;;;;;;;6.25;3.70;;;;;;;-145.71;100.00;60690.53;4773021;30;20059;-92
2021/11/22 05:45:04;;;;;;;6.32;3.90;;;;;;;-145.71;100.00;60690.53;4772630;30;20061;-92
2021/11/22 05:48:28;;;;;;;5.80;3.63;;;;;;;-145.71;100.00;60690.53;4788807;30;20032;-91
2021/11/22 05:51:53;;;;;;;8.25;3.17;;;;;;;-145.71;100.00;60690.53;4773291;30;20068;-92
2021/11/22 05:55:39;;;;;;;7.40;4.30;;;;;;;-145.71;100.00;60690.53;4789999;29;20031;-91
2021/11/22 05:59:05;;;;;;;10.05;5.07;;;;;;;-145.71;100.00;60690.53;4773139;29;20048;-92
2021/11/22 06:02:29;;;;;;;9.50;4.93;;;;;;;-145.71;100.00;60690.53;4789217;30;20035;-93
2021/11/22 06:05:53;;;;;;;7.28;5.32;;;;;;;-145.71;100.00;60690.53;4773268;30;20067;-92
2021/11/22 06:09:17;;;;;;;10.35;4.53;;;;;;;-145.71;100.00;60690.53;4773673;30;20390;-92
2021/11/22 06:55:29;;;;;;;6.40;4.50;;;;;;;-145.71;100.00;60690.53;5829522;24;20192;31
2021/11/22 09:40:53;;;;;;;;;;;;;;;-145.71;100.00;60690.53;5221530;24;21148;-92
2021/11/22 18:31:01;;;;;;;13.30;3.72;;;;;;;-145.71;100.00;60690.53;5817230;24;20056;31
2021/11/22 18:34:26;;;;;;;11.45;2.95;;;;;;;-145.71;100.00;60690.53;4775427;30;20112;-93
2021/11/22 18:37:50;;;;;;;9.32;3.10;;;;;;;-145.71;100.00;60690.53;4788168;29;20035;-91
2021/11/22 18:41:14;;;;;;;13.02;2.80;;;;;;;-145.71;100.00;60690.53;4801877;29;20038;-91
2021/11/22 18:44:38;;;;;;;12.20;2.65;;;;;;;-145.71;100.00;60690.53;4801598;29;20047;-90
2021/11/22 18:48:03;;;;;;;12.98;2.70;;;;;;;-145.71;100.00;60690.53;4801858;29;20039;-90
2021/11/22 18:51:27;;;;;;;16.00;2.40;;;;;;;-145.71;100.00;60690.53;4788029;29;20812;-91
2021/11/22 18:54:51;;;;;;;10.85;2.50;;;;;;;-145.71;100.00;60690.53;4802434;29;20043;-92
2021/11/22 18:58:16;;;;;;;8.90;2.63;;;;;;;-145.71;100.00;60690.53;4787870;29;20507;-92
2021/11/22 19:01:42;;;;;;;14.48;3.30;;;;;;;-145.71;100.00;60690.53;4801567;29;20039;-90
2021/11/22 19:05:06;;;;;;;11.02;2.45;;;;;;;-145.71;100.00;60690.53;4788464;29;20031;-92
2021/11/22 19:08:30;;;;;;;10.40;2.40;;;;;;;-145.71;100.00;60690.53;4808699;29;20047;-92
2021/11/22 19:11:54;;;;;;;18.23;3.38;;;;;;;-145.71;100.00;60690.53;4787348;30;20382;-92
2021/11/22 19:15:18;;;;;;;16.98;2.55;;;;;;;-145.71;100.00;60690.53;4801147;29;20122;-91
2021/11/22 19:18:42;;;;;;;11.93;2.53;;;;;;;-145.71;100.00;60690.53;4801190;29;20086;-91
2021/11/22 19:22:06;;;;;;;16.55;3.42;;;;;;;-145.71;100.00;60690.53;4787641;29;20039;-91
2021/11/22 19:25:31;;;;;;;16.40;3.28;;;;;;;-145.71;100.00;60690.53;4787092;29;20065;-92
2021/11/22 19:28:54;;;;;;;13.00;2.88;;;;;;;-145.71;100.00;60690.53;4807922;29;20071;-91
2021/11/22 19:32:19;;;;;;;19.77;3.80;;;;;;;-145.71;100.00;60690.53;4786809;29;20063;-91
2021/11/22 19:35:43;;;;;;;20.45;3.65;;;;;;;-145.71;100.00;60690.53;4800713;29;20074;-91
2021/11/22 19:39:08;;;;;;;15.63;3.97;;;;;;;-145.71;100.00;60690.53;4800717;29;20116;-91
2021/11/22 19:42:32;;;;;;;21.75;4.80;;;;;;;-145.71;100.00;60690.53;4786697;29;20039;-91
2021/11/22 19:45:56;;;;;;;13.32;2.70;;;;;;;-145.71;100.00;60690.53;4800835;29;20061;-92
2021/11/22 19:49:20;;;;;;;22.58;3.55;;;;;;;-145.71;100.00;60690.53;4800856;29;20135;-92
2021/11/22 19:52:50;;;;;;;15.38;3.13;;;;;;;-145.71;100.00;60690.53;4786853;29;20031;-91
2021/11/22 19:56:15;;;;;;;13.50;3.33;;;;;;;-145.71;100.00;60690.53;4802250;29;20492;-92
2021/11/22 19:59:40;;;;;;;30.85;6.60;;;;;;;-145.71;100.00;60690.53;4800572;29;20118;-92
2021/11/22 20:03:04;;;;;;;20.60;3.90;;;;;;;-145.71;100.00;60690.53;4787589;29;20480;-91
2021/11/22 20:06:28;;;;;;;14.88;3.63;;;;;;;-145.71;100.00;60690.53;4801014;29;20039;-92
2021/11/22 20:09:52;;;;;;;22.77;3.28;;;;;;;-145.71;100.00;60690.53;4801347;29;20728;-92
2021/11/22 20:13:16;;;;;;;28.02;4.18;;;;;;;-145.71;100.00;60690.53;4800388;29;20058;-92
2021/11/22 20:16:40;;;;;;;18.13;3.35;;;;;;;-145.71;100.00;60690.53;4786604;29;20035;-92
2021/11/22 20:20:05;;;;;;;21.20;3.47;;;;;;;-145.71;100.00;60690.53;4800250;29;20066;-91
2021/11/22 20:23:29;;;;;;;28.88;5.85;;;;;;;-145.71;100.00;60690.53;4799954;29;20033;-92
2021/11/22 20:26:55;;;;;;;21.33;6.50;;;;;;;-145.71;100.00;60690.53;4786643;29;20039;-92
2021/11/22 20:30:23;;;;;;;22.83;4.45;;;;;;;-145.71;100.00;60690.53;4786397;29;20091;-92
2021/11/22 20:33:47;;;;;;;23.50;4.32;;;;;;;-145.71;100.00;60690.53;4800120;29;20059;-92
2021/11/22 20:37:12;;;;;;;19.98;4.68;;;;;;;-145.71;100.00;60690.53;4801940;29;20047;-92
2021/11/22 20:40:36;;;;;;;14.00;4.03;;;;;;;-145.71;100.00;60690.53;4800017;29;20046;-92
2021/11/22 20:44:00;;;;;;;13.00;3.95;;;;;;;-145.71;100.00;60690.53;4815068;29;20040;-92
2021/11/22 20:47:24;;;;;;;46.28;8.32;;;;;;;-145.71;100.00;60690.53;4800119;29;20493;-92
2021/11/22 20:50:48;;;;;;;17.15;4.43;;;;;;;-145.71;100.00;60690.53;4802085;29;20031;-92
2021/11/22 20:54:12;;;;;;;18.50;3.20;;;;;;;-145.71;100.00;60690.53;4799940;29;20046;-92
2021/11/22 20:57:36;;;;;;;13.30;2.80;;;;;;;-145.71;100.00;60690.53;4799802;29;20073;-91
2021/11/22 21:01:04;;;;;;;12.77;2.80;;;;;;;-145.71;100.00;60690.53;4800220;29;20085;-92
2021/11/22 21:04:28;;;;;;;18.85;3.90;;;;;;;-145.71;100.00;60690.53;4799857;29;20050;-92
2021/11/22 21:07:53;;;;;;;13.07;3.03;;;;;;;-145.71;100.00;60690.53;4786653;29;20035;-92
2021/11/22 21:11:17;;;;;;;15.18;3.10;;;;;;;-145.71;100.00;60690.53;4800019;29;20063;-92
2021/11/22 21:14:41;;;;;;;10.50;2.22;;;;;;;-145.71;100.00;60690.53;4793129;29;20043;-91
2021/11/22 21:18:05;;;;;;;15.40;3.53;;;;;;;-145.71;100.00;60690.53;4786950;29;20031;-93
2021/11/22 21:21:29;;;;;;;15.35;3.10;;;;;;;-145.71;100.00;60690.53;4799926;29;20043;-93
2021/11/22 21:24:53;;;;;;;14.25;2.70;;;;;;;-145.71;100.00;60690.53;4786238;29;20114;-93
2021/11/22 21:28:17;;;;;;;13.73;2.13;;;;;;;-145.71;100.00;60690.53;4799982;29;20043;-93
2021/11/22 21:31:42;;;;;;;11.27;2.60;;;;;;;-145.71;100.00;60690.53;4801025;29;20035;-93
2021/11/22 21:35:09;;;;;;;10.43;2.00;;;;;;;-145.71;100.00;60690.53;4787019;29;20043;-92
2021/11/22 21:38:33;;;;;;;11.40;2.40;;;;;;;-145.71;100.00;60690.53;4799935;29;20042;-92
2021/11/22 21:41:57;;;;;;;13.45;3.08;;;;;;;-145.71;100.00;60690.53;4790373;29;20027;-92
2021/11/22 21:45:25;;;;;;;16.80;3.42;;;;;;;-145.71;100.00;60690.53;4801132;29;20039;-92
2021/11/22 21:48:51;;;;;;;17.25;3.08;;;;;;;-145.71;100.00;60690.53;4799535;29;20595;-92
2021/11/22 21:52:15;;;;;;;8.27;1.83;;;;;;;-145.71;100.00;60690.53;4802905;29;20036;-93
2021/11/22 21:55:39;;;;;;;14.43;2.47;;;;;;;-145.71;100.00;60690.53;4803073;29;20122;-93
2021/11/22 21:59:03;;;;;;;13.57;2.80;;;;;;;-145.71;100.00;60690.53;4802746;29;20039;-93
2021/11/22 22:02:27;;;;;;;20.30;2.50;;;;;;;-145.71;100.00;60690.53;4790249;29;20468;-93
2021/11/22 22:05:51;;;;;;;18.80;2.90;;;;;;;-145.71;100.00;60690.53;4804328;29;20118;-93
2021/11/22 22:09:18;;;;;;;17.63;4.65;;;;;;;-145.71;100.00;60690.53;4789726;29;20051;-93
2021/11/22 22:12:42;;;;;;;16.63;3.38;;;;;;;-145.71;100.00;60690.53;4803383;29;20070;-94
2021/11/22 22:16:07;;;;;;;21.23;4.18;;;;;;;-145.71;100.00;60690.53;4792041;29;20116;-93
2021/11/22 22:19:30;;;;;;;15.95;2.75;;;;;;;-145.71;100.00;60690.53;4802638;29;20047;-92
2021/11/22 22:22:54;;;;;;;21.05;3.75;;;;;;;-145.71;100.00;60690.53;4802257;29;20046;-93
2021/11/22 22:26:19;;;;;;;21.52;3.35;;;;;;;-145.71;100.00;60690.53;4788581;29;20071;-92
2021/11/22 22:29:43;;;;;;;25.05;4.00;;;;;;;-145.71;100.00;60690.53;4801958;29;20051;-92
2021/11/22 22:33:08;;;;;;;19.52;2.92;;;;;;;-145.71;100.00;60690.53;4788179;29;20505;-92
2021/11/22 22:36:32;;;;;;;27.25;3.90;;;;;;;-145.71;100.00;60690.53;4803153;29;20127;-92
2021/11/22 22:39:56;;;;;;;24.95;4.05;;;;;;;-145.71;100.00;60690.53;4802042;29;20092;-93
2021/11/22 22:43:20;;;;;;;21.08;3.63;;;;;;;-145.71;100.00;60690.53;4802114;29;20408;-93
2021/11/22 22:46:45;;;;;;;14.32;3.22;;;;;;;-145.71;100.00;60690.53;4813929;29;20034;-93
2021/11/22 22:50:09;;;;;;;12.60;2.65;;;;;;;-145.71;100.00;60690.53;4788706;29;20489;-93
2021/11/22 22:53:35;;;;;;;23.08;3.47;;;;;;;-145.71;100.00;60690.53;4802951;29;20070;-93
2021/11/22 22:57:00;;;;;;;16.15;2.63;;;;;;;-145.71;100.00;60690.53;4801435;29;20035;-93
2021/11/22 23:00:35;;;;;;;18.40;4.13;;;;;;;-145.71;100.00;60690.53;4787677;29;20047;-93
2021/11/22 23:04:00;;;;;;;12.50;2.63;;;;;;;-145.71;100.00;60690.53;4787869;29;20118;-93
2021/11/22 23:07:24;;;;;;;18.45;3.25;;;;;;;-145.71;100.00;60690.53;4801738;29;20027;-93
2021/11/22 23:10:49;;;;;;;18.17;2.58;;;;;;;-145.71;100.00;60690.53;4801543;29;20039;-93
2021/11/22 23:14:13;;;;;;;18.00;4.03;;;;;;;-145.71;100.00;60690.53;4801317;29;20031;-93
2021/11/22 23:17:37;;;;;;;23.05;3.33;;;;;;;-145.71;100.00;60690.53;4791973;29;20038;-92
2021/11/22 23:21:04;;;;;;;22.15;3.80;;;;;;;-145.71;100.00;60690.53;4801582;29;20500;-93
2021/11/22 23:24:30;;;;;;;17.20;4.05;;;;;;;-145.71;100.00;60690.53;4803926;29;20050;-93
2021/11/22 23:27:53;;;;;;;27.13;5.22;;;;;;;-145.71;100.00;60690.53;4787946;29;20047;-93
2021/11/22 23:31:18;;;;;;;22.27;3.13;;;;;;;-145.71;100.00;60690.53;4801889;29;20036;-93
2021/11/22 23:34:45;;;;;;;18.92;3.85;;;;;;;-145.71;100.00;60690.53;4800903;29;20047;-93
2021/11/22 23:38:10;;;;;;;19.88;4.05;;;;;;;-145.71;100.00;60690.53;4801143;29;20101;-92
2021/11/22 23:41:35;;;;;;;21.27;3.63;;;;;;;-145.71;100.00;60690.53;4800766;29;20087;-92
2021/11/22 23:45:00;;;;;;;23.88;3.40;;;;;;;-145.71;100.00;60690.53;4787193;29;20031;-92
2021/11/22 23:48:24;;;;;;;21.55;3.95;;;;;;;-145.71;100.00;60690.53;4793752;29;20075;-93
2021/11/22 23:51:48;;;;;;;24.95;3.13;;;;;;;-145.71;100.00;60690.53;4786735;29;20046;-93
2021/11/22 23:55:13;;;;;;;18.60;3.75;;;;;;;-145.71;100.00;60690.53;4787711;29;20362;-93
2021/11/22 23:58:38;;;;;;;20.02;3.70;;;;;;;-145.71;100.00;60690.53;4800403;29;20035;-93
